Lewisberry, Pennsylvania
Current Conditions -  °F | °C
As of 1:56 AM on Tuesday 21 Oct 2014 (Local Time) from KCXY Reporting Station
Overcast Overcast  
Wind Chill: 54°   Ceiling: 7500
Heat Index: 54°   Visibility: 10mi
Dew Point: 50°   Wind: 3mph
Humidity: 86%   Direction: 150°SSE
Pressure: 29.89"   Gusts: NA
Location:  40.14°N, 76.86°W
Report Text: KCXY 210556Z AUTO 15003KT 10SM OVC075 12/10 A2989 RMK AO2 RAE31 SLP123 P0002 60014 T01220100 10144 20122 58008
Loading
Personal Weather Stations






























Interactive Weather Map
Tropical Storm Tracking
New forecast layout! Learn more

10-Day Weather Forecast

Advertisements
Track Severe Weather on mobile